Time;durP1;ratioP1;P1;durP2;ratioP2;P2;SDS_P1;SDS_P2;PMS_P1;PMS_P2;Temp;Humidity;BMP_temperature;BMP_pressure;BME280_temperature;BME280_humidity;BME280_pressure;Samples;Min_cycle;Max_cycle;Signal;HPM_P1;HPM_P2
2023/10/27 00:01:11;;;;;;;128.73;115.83;;;8.10;99.90;;;;;;4891903;29;20040;-74
2023/10/27 00:03:37;;;;;;;121.90;109.03;;;8.10;99.90;;;;;;4887344;29;20085;-75
2023/10/27 00:06:03;;;;;;;121.67;102.43;;;8.10;99.90;;;;;;4871266;29;20131;-74
2023/10/27 00:08:28;;;;;;;136.27;122.07;;;8.10;99.90;;;;;;4885842;29;20048;-74
2023/10/27 00:10:54;;;;;;;148.23;133.47;;;8.10;99.90;;;;;;4885915;29;20300;-75
2023/10/27 00:13:20;;;;;;;138.60;124.67;;;8.10;99.90;;;;;;4877561;29;20048;-74
2023/10/27 00:15:46;;;;;;;135.00;120.83;;;8.10;99.90;;;;;;4891866;29;20071;-74
2023/10/27 00:18:12;;;;;;;136.77;114.00;;;8.20;99.90;;;;;;4875368;29;20037;-74
2023/10/27 00:20:38;;;;;;;151.60;135.73;;;8.20;99.90;;;;;;4882962;29;20048;-75
2023/10/27 00:23:04;;;;;;;132.73;115.67;;;8.20;99.90;;;;;;4885993;29;20567;-74
2023/10/27 00:25:30;;;;;;;131.63;118.10;;;8.20;99.90;;;;;;4884398;29;20045;-74
2023/10/27 00:27:55;;;;;;;163.13;148.93;;;8.20;99.90;;;;;;4889960;29;20353;-74
2023/10/27 00:30:21;;;;;;;162.20;148.13;;;8.20;99.90;;;;;;4875033;29;20067;-74
2023/10/27 00:32:47;;;;;;;145.33;130.80;;;8.20;99.90;;;;;;4887063;29;20045;-74
2023/10/27 00:35:13;;;;;;;122.87;108.67;;;8.20;99.90;;;;;;4889458;29;20039;-74
2023/10/27 00:37:40;;;;;;;121.40;106.83;;;8.20;99.90;;;;;;4887125;29;20051;-74
2023/10/27 00:40:07;;;;;;;160.57;146.33;;;8.20;99.90;;;;;;4893096;29;20055;-74
2023/10/27 00:42:33;;;;;;;113.00;100.90;;;8.20;99.90;;;;;;4894346;29;20292;-74
2023/10/27 00:44:59;;;;;;;131.90;115.20;;;8.20;99.90;;;;;;4867947;29;20667;-74
2023/10/27 00:47:26;;;;;;;132.23;116.83;;;8.20;99.90;;;;;;4878986;29;20294;-74
2023/10/27 00:49:54;;;;;;;147.00;132.13;;;8.20;99.90;;;;;;4880833;29;20048;-74
2023/10/27 00:52:22;;;;;;;150.95;136.15;;;8.20;99.90;;;;;;4888264;29;20296;-74
2023/10/27 00:54:49;;;;;;;156.82;141.20;;;8.20;99.90;;;;;;4889997;29;20068;-74
2023/10/27 00:57:14;;;;;;;149.68;134.82;;;8.20;99.90;;;;;;4887214;29;20044;-74
2023/10/27 00:59:41;;;;;;;146.53;132.27;;;8.20;99.90;;;;;;4873469;29;20037;-74
2023/10/27 01:02:07;;;;;;;148.40;133.13;;;8.20;99.90;;;;;;4875167;29;20917;-73
2023/10/27 01:04:33;;;;;;;131.15;116.85;;;8.10;99.90;;;;;;4875130;29;20083;-73
2023/10/27 01:06:59;;;;;;;128.23;112.13;;;8.10;99.90;;;;;;4881671;29;20501;-74
2023/10/27 01:09:24;;;;;;;131.50;109.50;;;8.10;99.90;;;;;;4877623;29;20051;-74
2023/10/27 01:11:51;;;;;;;143.87;128.97;;;8.10;99.90;;;;;;4883547;29;20123;-74
2023/10/27 01:14:17;;;;;;;140.68;124.85;;;8.10;99.90;;;;;;4878753;29;20051;-73
2023/10/27 01:16:43;;;;;;;130.90;106.47;;;8.10;99.90;;;;;;4886961;29;20500;-73
2023/10/27 01:19:09;;;;;;;126.07;112.10;;;8.10;99.90;;;;;;4881447;29;20429;-73
2023/10/27 01:21:34;;;;;;;141.10;122.33;;;8.10;99.90;;;;;;4887571;29;20501;-73
2023/10/27 01:24:02;;;;;;;140.33;117.63;;;8.20;99.90;;;;;;4879863;29;20044;-73
2023/10/27 01:26:28;;;;;;;148.30;133.68;;;8.20;99.90;;;;;;4888293;29;20040;-73
2023/10/27 01:28:54;;;;;;;156.73;141.53;;;8.20;99.90;;;;;;4892109;29;20060;-74
2023/10/27 01:31:19;;;;;;;136.30;122.17;;;8.20;99.90;;;;;;4871411;29;20098;-73
2023/10/27 01:33:45;;;;;;;140.10;114.80;;;8.20;99.90;;;;;;4892646;29;20608;-73
2023/10/27 01:36:11;;;;;;;135.33;121.00;;;8.20;99.90;;;;;;4888263;29;20052;-74
2023/10/27 01:38:36;;;;;;;147.37;132.50;;;8.30;99.90;;;;;;4874688;29;20048;-73
2023/10/27 01:41:02;;;;;;;146.00;118.97;;;8.30;99.90;;;;;;4873906;29;20401;-74
2023/10/27 01:43:28;;;;;;;137.73;112.73;;;8.30;99.90;;;;;;4890577;29;20051;-73
2023/10/27 01:45:54;;;;;;;152.07;137.63;;;8.30;99.90;;;;;;4878004;29;20032;-73
2023/10/27 01:48:19;;;;;;;135.77;121.97;;;8.40;99.90;;;;;;4886077;29;20417;-73
2023/10/27 01:50:45;;;;;;;122.63;109.60;;;8.40;99.90;;;;;;4889385;29;20072;-74
2023/10/27 01:53:10;;;;;;;132.13;111.60;;;8.40;99.90;;;;;;4892006;29;20045;-74
2023/10/27 01:55:36;;;;;;;144.03;129.27;;;8.40;99.90;;;;;;4875453;29;20044;-74
2023/10/27 01:58:02;;;;;;;155.90;140.83;;;8.40;99.90;;;;;;4876181;29;20135;-74
2023/10/27 02:00:28;;;;;;;167.03;151.40;;;8.40;99.90;;;;;;4876942;29;20112;-74
2023/10/27 02:02:53;;;;;;;132.73;117.90;;;8.50;99.90;;;;;;4881068;29;20060;-73
2023/10/27 02:05:19;;;;;;;140.63;125.47;;;8.50;99.90;;;;;;4894606;29;20080;-74
2023/10/27 02:07:45;;;;;;;170.63;155.60;;;8.50;99.90;;;;;;4881444;29;20413;-74
2023/10/27 02:10:11;;;;;;;165.37;149.90;;;8.50;99.90;;;;;;4900011;29;20050;-74
2023/10/27 02:12:36;;;;;;;172.67;156.70;;;8.50;99.90;;;;;;4887588;29;20040;-74
2023/10/27 02:15:02;;;;;;;159.87;145.00;;;8.50;99.90;;;;;;4894461;29;20051;-74
2023/10/27 02:17:28;;;;;;;146.83;132.43;;;8.50;99.90;;;;;;4901186;29;20045;-74
2023/10/27 02:19:55;;;;;;;140.43;127.37;;;8.50;99.90;;;;;;4881791;29;20052;-74
2023/10/27 02:22:21;;;;;;;172.98;156.80;;;8.50;99.90;;;;;;4902856;29;20049;-75
2023/10/27 02:24:47;;;;;;;132.50;119.67;;;8.50;99.90;;;;;;4888652;29;20135;-74
2023/10/27 02:27:13;;;;;;;138.13;124.23;;;8.50;99.90;;;;;;4903496;29;20723;-74
2023/10/27 02:29:38;;;;;;;161.77;147.70;;;8.50;99.90;;;;;;4892057;29;20056;-74
2023/10/27 02:32:04;;;;;;;119.57;108.27;;;8.50;99.90;;;;;;4887797;29;20040;-74
2023/10/27 02:34:30;;;;;;;111.50;100.83;;;8.50;99.90;;;;;;4883347;29;20127;-74
2023/10/27 02:36:56;;;;;;;125.70;114.03;;;8.50;99.90;;;;;;4890508;29;20383;-74
2023/10/27 02:39:21;;;;;;;143.20;130.80;;;8.50;99.90;;;;;;4877209;29;20067;-75
2023/10/27 02:41:47;;;;;;;138.23;125.40;;;8.50;99.90;;;;;;4900228;29;20048;-74
2023/10/27 02:44:13;;;;;;;148.70;136.57;;;8.50;99.90;;;;;;4898004;29;20032;-74
2023/10/27 02:46:39;;;;;;;119.03;107.47;;;8.50;99.90;;;;;;4896063;29;20520;-74
2023/10/27 02:49:05;;;;;;;159.57;146.77;;;8.50;99.90;;;;;;4877611;29;20040;-74
2023/10/27 02:51:31;;;;;;;136.57;125.57;;;8.50;99.90;;;;;;4872620;29;20045;-74
2023/10/27 02:53:57;;;;;;;122.03;110.37;;;8.50;99.90;;;;;;4884679;29;20793;-74
2023/10/27 02:56:23;;;;;;;134.93;122.90;;;8.50;99.90;;;;;;4893935;29;20316;-74
2023/10/27 02:58:49;;;;;;;115.07;105.23;;;8.50;99.90;;;;;;4886952;29;20737;-74
2023/10/27 03:01:15;;;;;;;104.00;94.30;;;8.50;99.90;;;;;;4891855;29;20304;-74
2023/10/27 03:03:42;;;;;;;127.47;116.57;;;8.50;99.90;;;;;;4875516;29;20300;-74
2023/10/27 03:06:08;;;;;;;127.97;116.50;;;8.50;99.90;;;;;;4884757;29;20052;-74
2023/10/27 03:08:34;;;;;;;133.87;122.63;;;8.60;99.90;;;;;;4897117;29;20800;-74
2023/10/27 03:11:00;;;;;;;105.93;96.17;;;8.60;99.90;;;;;;4877971;29;20117;-74
2023/10/27 03:13:35;;;;;;;138.47;127.23;;;8.60;99.90;;;;;;4897311;29;20293;-74
2023/10/27 03:16:02;;;;;;;;;;;8.60;99.90;;;;;;4878159;29;20048;-74
2023/10/27 03:18:27;;;;;;;110.10;100.53;;;8.60;99.90;;;;;;4878322;29;19927;-74
2023/10/27 03:21:01;;;;;;;117.70;107.47;;;8.60;99.90;;;;;;4876387;29;20396;-75
2023/10/27 03:23:27;;;;;;;130.07;119.37;;;8.60;99.90;;;;;;4891578;29;20037;-74
2023/10/27 03:25:53;;;;;;;113.80;103.33;;;8.60;99.90;;;;;;4889402;29;20320;-74
2023/10/27 03:28:22;;;;;;;137.40;126.23;;;8.60;99.90;;;;;;4870344;29;20929;-75
2023/10/27 03:30:48;;;;;;;175.03;163.50;;;8.60;99.90;;;;;;4882816;29;20292;-74
2023/10/27 03:33:16;;;;;;;128.70;118.50;;;8.60;99.90;;;;;;4894313;29;20289;-74
2023/10/27 03:35:44;;;;;;;106.33;96.53;;;8.60;99.90;;;;;;4891736;29;20296;-74
2023/10/27 03:38:11;;;;;;;124.37;114.33;;;8.70;99.90;;;;;;4879708;29;20335;-74
2023/10/27 03:40:41;;;;;;;126.20;116.50;;;8.60;99.90;;;;;;4873569;29;20412;-74
2023/10/27 03:43:07;;;;;;;118.73;109.37;;;8.60;99.90;;;;;;4904238;29;20356;-74
2023/10/27 03:45:36;;;;;;;207.37;194.37;;;8.60;99.90;;;;;;4887435;29;20813;-75
2023/10/27 03:48:03;;;;;;;186.63;174.80;;;8.60;99.90;;;;;;4914098;29;20067;-74
2023/10/27 03:50:28;;;;;;;113.97;105.13;;;8.60;99.90;;;;;;4877668;29;20336;-74
2023/10/27 03:52:54;;;;;;;96.03;87.70;;;8.60;99.90;;;;;;4893371;29;20292;-74
2023/10/27 03:55:20;;;;;;;109.03;99.93;;;8.60;99.90;;;;;;4889880;29;20136;-75
2023/10/27 03:57:46;;;;;;;95.53;87.17;;;8.60;99.90;;;;;;4875684;29;20939;-74
2023/10/27 04:00:13;;;;;;;91.03;83.30;;;8.60;99.90;;;;;;4898032;29;20043;-74
2023/10/27 04:02:39;;;;;;;113.83;104.87;;;8.50;99.90;;;;;;4895777;29;20127;-75
2023/10/27 04:05:05;;;;;;;86.73;78.73;;;8.50;99.90;;;;;;4884499;29;20301;-75
2023/10/27 04:07:31;;;;;;;101.63;92.63;;;8.50;99.90;;;;;;4890354;29;20285;-74
2023/10/27 04:09:57;;;;;;;82.53;74.73;;;8.50;99.90;;;;;;4880357;29;20298;-74
2023/10/27 04:12:23;;;;;;;106.13;97.57;;;8.40;99.90;;;;;;4883041;29;20166;-74
2023/10/27 04:14:48;;;;;;;104.37;94.93;;;8.40;99.90;;;;;;4880460;29;20095;-74
2023/10/27 04:17:14;;;;;;;112.27;102.37;;;8.50;99.90;;;;;;4880780;29;20048;-74
2023/10/27 04:19:43;;;;;;;99.30;90.60;;;8.50;99.90;;;;;;4888157;29;20044;-74
2023/10/27 04:22:09;;;;;;;117.27;107.70;;;8.40;99.90;;;;;;4890991;29;20206;-74
2023/10/27 04:24:35;;;;;;;115.67;106.73;;;8.40;99.90;;;;;;4874792;29;20293;-74
2023/10/27 04:27:00;;;;;;;139.77;129.70;;;8.40;99.90;;;;;;4874733;29;20296;-74
2023/10/27 04:29:26;;;;;;;94.97;87.23;;;8.50;99.90;;;;;;4890844;29;20041;-76
2023/10/27 04:31:52;;;;;;;107.50;99.20;;;8.50;99.90;;;;;;4876126;29;20561;-76
2023/10/27 04:34:18;;;;;;;117.93;108.77;;;8.40;99.90;;;;;;4874965;29;20052;-76
2023/10/27 04:36:44;;;;;;;115.50;106.77;;;8.40;99.90;;;;;;4874867;29;20521;-76
2023/10/27 04:39:10;;;;;;;105.27;97.00;;;8.40;99.90;;;;;;4885729;29;20052;-76
2023/10/27 04:41:36;;;;;;;88.57;81.07;;;8.40;99.90;;;;;;4878952;29;20295;-76
2023/10/27 04:44:01;;;;;;;120.57;111.30;;;8.40;99.90;;;;;;4894276;29;20072;-76
2023/10/27 04:46:27;;;;;;;130.17;120.90;;;8.40;99.90;;;;;;4885831;29;20045;-76
2023/10/27 04:48:53;;;;;;;125.47;116.30;;;8.40;99.90;;;;;;4887048;29;20051;-76
2023/10/27 04:51:20;;;;;;;144.43;134.53;;;8.30;99.90;;;;;;4892201;29;20045;-76
2023/10/27 04:53:46;;;;;;;98.57;90.67;;;8.30;99.90;;;;;;4877203;29;20050;-76
2023/10/27 04:56:12;;;;;;;157.73;147.63;;;8.30;99.90;;;;;;4884437;29;20305;-76
2023/10/27 04:58:39;;;;;;;132.97;123.97;;;8.30;99.90;;;;;;4882505;29;20076;-76
2023/10/27 05:01:05;;;;;;;124.43;115.43;;;8.30;99.90;;;;;;4888055;29;20045;-76
2023/10/27 05:03:31;;;;;;;117.77;110.03;;;8.30;99.90;;;;;;4895127;29;20394;-76
2023/10/27 05:06:09;;;;;;;111.30;103.13;;;8.30;99.90;;;;;;4880668;29;20076;-76
2023/10/27 05:08:35;;;;;;;116.57;108.50;;;8.30;99.90;;;;;;4881718;29;20466;-76
2023/10/27 05:11:01;;;;;;;109.63;101.50;;;8.30;99.90;;;;;;4875122;29;20384;-77
2023/10/27 05:13:26;;;;;;;107.40;99.47;;;8.30;99.90;;;;;;4897951;29;20107;-76
2023/10/27 05:15:54;;;;;;;111.73;103.23;;;8.30;99.90;;;;;;4884691;29;20059;-76
2023/10/27 05:18:19;;;;;;;116.70;108.83;;;8.30;99.90;;;;;;4876604;29;20052;-76
2023/10/27 05:20:45;;;;;;;102.50;95.00;;;8.30;99.90;;;;;;4889773;29;20643;-77
2023/10/27 05:23:11;;;;;;;141.83;133.20;;;8.30;99.90;;;;;;4887204;29;20478;-76
2023/10/27 05:25:36;;;;;;;149.37;139.73;;;8.30;99.90;;;;;;4889774;29;20044;-76
2023/10/27 05:28:02;;;;;;;132.30;123.67;;;8.30;99.90;;;;;;4891453;29;20136;-76
2023/10/27 05:30:28;;;;;;;151.97;142.27;;;8.30;99.90;;;;;;4890295;29;20049;-76
2023/10/27 05:32:54;;;;;;;164.80;154.63;;;8.30;99.90;;;;;;4882491;29;20036;-76
2023/10/27 05:35:19;;;;;;;145.53;136.33;;;8.30;99.90;;;;;;4881294;29;20041;-76
2023/10/27 05:37:45;;;;;;;145.90;136.43;;;8.20;99.90;;;;;;4886760;29;20047;-76
2023/10/27 05:40:11;;;;;;;118.43;109.93;;;8.30;99.90;;;;;;4882295;29;20200;-76
2023/10/27 05:42:37;;;;;;;122.83;114.23;;;8.20;99.90;;;;;;4898196;29;20036;-76
2023/10/27 05:45:03;;;;;;;376.83;357.97;;;8.20;99.90;;;;;;4900152;29;20277;-76
2023/10/27 05:47:28;;;;;;;326.47;310.37;;;8.20;99.90;;;;;;4904082;29;20111;-76
2023/10/27 05:49:55;;;;;;;402.63;382.50;;;8.20;99.90;;;;;;4873384;29;20037;-76
2023/10/27 05:52:21;;;;;;;369.80;351.23;;;8.20;99.90;;;;;;4904152;29;20048;-76
2023/10/27 05:54:46;;;;;;;339.30;322.50;;;8.20;99.90;;;;;;4888321;29;20323;-76
2023/10/27 05:57:12;;;;;;;384.53;365.50;;;8.20;99.90;;;;;;4894302;29;20312;-76
2023/10/27 05:59:38;;;;;;;403.80;383.67;;;8.20;99.90;;;;;;4887276;29;20057;-76
2023/10/27 06:02:04;;;;;;;393.17;373.80;;;8.20;99.90;;;;;;4889830;29;20118;-76
2023/10/27 06:04:29;;;;;;;410.73;390.53;;;8.20;99.90;;;;;;4887327;29;20101;-76
2023/10/27 06:06:55;;;;;;;341.87;324.73;;;8.20;99.90;;;;;;4887277;29;20055;-76
2023/10/27 06:09:21;;;;;;;348.20;330.93;;;8.20;99.90;;;;;;4884168;29;20035;-76
2023/10/27 06:11:46;;;;;;;395.37;375.87;;;8.20;99.90;;;;;;4879396;29;20437;-76
2023/10/27 06:14:12;;;;;;;393.80;374.17;;;8.20;99.90;;;;;;4897100;29;20052;-76
2023/10/27 06:16:38;;;;;;;412.17;391.97;;;8.20;99.90;;;;;;4875431;29;20044;-76
2023/10/27 06:19:04;;;;;;;355.47;338.57;;;8.20;99.90;;;;;;4878940;29;20045;-76
2023/10/27 06:21:30;;;;;;;372.83;354.43;;;8.20;99.90;;;;;;4876630;29;20101;-75
2023/10/27 06:23:55;;;;;;;422.80;402.20;;;8.20;99.90;;;;;;4896838;29;20041;-76
2023/10/27 06:26:22;;;;;;;371.57;353.60;;;8.20;99.90;;;;;;4894468;29;20100;-76
2023/10/27 06:28:48;;;;;;;406.83;387.33;;;8.20;99.90;;;;;;4908603;29;20513;-76
2023/10/27 06:31:14;;;;;;;402.87;382.90;;;8.20;99.90;;;;;;4904350;29;20295;-76
2023/10/27 06:33:39;;;;;;;421.93;401.33;;;8.20;99.90;;;;;;4886683;29;20053;-76
2023/10/27 06:36:05;;;;;;;408.30;388.67;;;8.30;99.90;;;;;;4894967;29;20097;-76
2023/10/27 06:38:31;;;;;;;413.60;393.37;;;8.20;99.90;;;;;;4885154;29;20417;-76
2023/10/27 06:40:57;;;;;;;391.87;373.10;;;8.30;99.90;;;;;;4879029;29;20285;-76
2023/10/27 06:43:22;;;;;;;399.23;380.00;;;8.30;99.90;;;;;;4880714;29;20107;-76
2023/10/27 06:45:48;;;;;;;423.10;402.77;;;8.30;99.90;;;;;;4880435;29;20109;-76
2023/10/27 06:48:14;;;;;;;399.07;379.90;;;8.30;99.90;;;;;;4876298;29;20036;-73
2023/10/27 06:50:40;;;;;;;397.83;378.80;;;8.30;99.90;;;;;;4894092;29;20040;-73
2023/10/27 06:53:06;;;;;;;419.83;398.87;;;8.30;99.90;;;;;;4892662;29;20995;-73
2023/10/27 06:55:32;;;;;;;450.23;428.30;;;8.40;99.90;;;;;;4886760;29;20372;-73
2023/10/27 06:57:59;;;;;;;419.83;399.93;;;8.40;99.90;;;;;;4880430;29;20184;-73
2023/10/27 07:00:25;;;;;;;461.60;439.40;;;8.40;99.90;;;;;;4874105;29;20045;-73
2023/10/27 07:02:51;;;;;;;470.83;447.27;;;8.40;99.90;;;;;;4878568;29;20292;-75
2023/10/27 07:05:17;;;;;;;464.95;442.58;;;8.40;99.90;;;;;;4875673;29;20056;-73
2023/10/27 07:07:43;;;;;;;487.10;463.37;;;8.40;99.90;;;;;;4894003;29;20052;-73
2023/10/27 07:10:10;;;;;;;414.60;394.67;;;8.40;99.90;;;;;;4879340;29;20292;-73
2023/10/27 07:12:36;;;;;;;446.27;425.13;;;8.40;99.90;;;;;;4888289;29;21182;-73
2023/10/27 07:15:03;;;;;;;429.17;408.60;;;8.40;99.90;;;;;;4890022;29;20293;-73
2023/10/27 07:17:28;;;;;;;408.93;389.27;;;8.50;99.90;;;;;;4888287;29;20642;-73
2023/10/27 07:19:54;;;;;;;462.80;440.37;;;8.50;99.90;;;;;;4886005;29;20305;-73
2023/10/27 07:22:20;;;;;;;464.10;441.50;;;8.50;99.90;;;;;;4875053;29;20077;-73
2023/10/27 07:24:46;;;;;;;452.43;430.60;;;8.50;99.90;;;;;;4872157;29;20040;-73
2023/10/27 07:27:13;;;;;;;425.17;405.17;;;8.50;99.90;;;;;;4893746;29;20045;-72
2023/10/27 07:29:39;;;;;;;475.20;452.40;;;8.60;99.90;;;;;;4872746;29;20342;-73
2023/10/27 07:32:05;;;;;;;401.60;382.67;;;8.60;99.90;;;;;;4890267;29;20360;-72
2023/10/27 07:34:31;;;;;;;449.73;428.30;;;8.60;99.90;;;;;;4878170;29;20296;-73
2023/10/27 07:36:57;;;;;;;376.43;358.80;;;8.70;99.90;;;;;;4900144;29;20296;-72
2023/10/27 07:39:22;;;;;;;400.67;381.47;;;8.70;99.90;;;;;;4885398;29;20051;-73
2023/10/27 07:41:52;;;;;;;388.23;369.80;;;8.70;99.90;;;;;;4883862;29;20162;-73
2023/10/27 07:44:18;;;;;;;442.70;421.00;;;8.80;99.90;;;;;;4893117;29;20091;-73
2023/10/27 07:46:44;;;;;;;464.13;441.47;;;8.80;99.90;;;;;;4908437;29;20331;-73
2023/10/27 07:49:10;;;;;;;501.50;476.63;;;8.90;99.90;;;;;;4895474;29;20040;-73
2023/10/27 07:51:36;;;;;;;360.90;343.23;;;8.90;99.90;;;;;;4878229;29;20304;-73
2023/10/27 07:54:04;;;;;;;528.97;501.60;;;8.90;99.90;;;;;;4894327;29;20348;-73
2023/10/27 07:56:29;;;;;;;484.83;461.00;;;8.90;99.90;;;;;;4896854;29;20598;-73
2023/10/27 07:58:55;;;;;;;467.23;444.23;;;9.00;99.90;;;;;;4885628;29;20309;-73
2023/10/27 08:01:21;;;;;;;496.63;472.17;;;9.00;99.90;;;;;;4871232;29;20036;-73
2023/10/27 08:03:47;;;;;;;458.77;436.37;;;9.00;99.90;;;;;;4877253;29;20576;-73
2023/10/27 08:06:13;;;;;;;431.07;409.63;;;9.10;99.90;;;;;;4873549;29;20064;-73
2023/10/27 08:08:38;;;;;;;428.37;407.80;;;9.10;99.90;;;;;;4889566;29;20052;-73
2023/10/27 08:11:05;;;;;;;368.50;350.60;;;9.10;99.90;;;;;;4901755;29;20290;-73
2023/10/27 08:13:31;;;;;;;406.07;386.47;;;9.10;99.90;;;;;;4886525;29;20517;-73
2023/10/27 08:15:58;;;;;;;451.43;429.13;;;9.10;99.90;;;;;;4890585;29;20303;-73
2023/10/27 08:18:24;;;;;;;472.43;448.60;;;9.10;99.90;;;;;;4890672;29;20300;-73
2023/10/27 08:20:52;;;;;;;446.03;424.03;;;9.20;99.90;;;;;;4894193;29;20289;-73
2023/10/27 08:23:17;;;;;;;448.67;426.57;;;9.20;99.90;;;;;;4902694;29;20445;-73
2023/10/27 08:25:48;;;;;;;410.10;391.03;;;9.20;99.90;;;;;;4889395;29;20416;-73
2023/10/27 08:28:13;;;;;;;400.97;382.10;;;9.20;99.90;;;;;;4877324;29;20048;-73
2023/10/27 08:30:39;;;;;;;435.83;414.67;;;9.20;99.90;;;;;;4890315;29;20289;-74
2023/10/27 08:33:05;;;;;;;408.53;389.20;;;9.20;99.90;;;;;;4875717;29;20045;-73
2023/10/27 08:35:31;;;;;;;400.73;382.07;;;9.20;99.90;;;;;;4878502;29;20075;-74
2023/10/27 08:37:56;;;;;;;398.90;380.00;;;9.20;99.90;;;;;;4891068;29;20037;-73
2023/10/27 08:40:22;;;;;;;443.00;421.73;;;9.20;99.90;;;;;;4878890;29;20305;-73
2023/10/27 08:42:49;;;;;;;416.90;397.20;;;9.20;99.90;;;;;;4878716;29;20052;-73
2023/10/27 08:45:15;;;;;;;408.00;388.60;;;9.20;99.90;;;;;;4887938;29;20289;-74
2023/10/27 08:47:42;;;;;;;447.63;425.90;;;9.20;99.90;;;;;;4875909;29;20452;-73
2023/10/27 08:50:08;;;;;;;472.60;449.33;;;9.20;99.90;;;;;;4895252;29;20633;-73
2023/10/27 08:52:34;;;;;;;465.77;443.43;;;9.20;99.90;;;;;;4875330;29;20494;-74
2023/10/27 08:55:08;;;;;;;465.37;443.00;;;9.20;99.90;;;;;;4879528;29;20283;-74
2023/10/27 08:57:34;;;;;;;474.97;451.77;;;9.30;99.90;;;;;;4888842;29;20495;-73
2023/10/27 08:59:59;;;;;;;441.37;419.83;;;9.30;99.90;;;;;;4892760;29;20388;-74
2023/10/27 09:02:30;;;;;;;459.80;438.17;;;9.40;99.90;;;;;;4893405;29;20380;-74
2023/10/27 09:05:08;;;;;;;429.60;409.37;;;9.40;99.90;;;;;;4879592;29;20579;-73
2023/10/27 09:07:35;;;;;;;437.77;416.67;;;9.40;99.90;;;;;;4877878;29;20316;-74
2023/10/27 09:10:02;;;;;;;453.17;431.40;;;9.40;99.90;;;;;;4877512;29;20296;-74
2023/10/27 09:12:30;;;;;;;457.00;434.63;;;9.40;99.90;;;;;;4875852;29;20303;-75
2023/10/27 09:15:07;;;;;;;453.60;431.77;;;9.50;99.90;;;;;;4899511;29;20655;-75
2023/10/27 09:17:53;;;;;;;403.43;384.30;;;9.50;99.90;;;;;;4895510;29;20376;-75
2023/10/27 09:20:21;;;;;;;;;;;9.60;99.90;;;;;;4883665;29;20301;-75
2023/10/27 09:22:56;;;;;;;422.47;402.07;;;9.60;99.90;;;;;;4898941;29;19959;-75
2023/10/27 09:25:25;;;;;;;410.00;390.30;;;9.60;99.90;;;;;;4891517;29;20823;-75
2023/10/27 09:27:51;;;;;;;404.57;385.53;;;9.60;99.90;;;;;;4881328;29;20036;-75
2023/10/27 09:30:27;;;;;;;440.70;419.67;;;9.70;99.90;;;;;;4882852;29;20376;-75
2023/10/27 09:32:53;;;;;;;445.30;424.23;;;9.70;99.90;;;;;;4879161;29;20356;-75
2023/10/27 09:35:19;;;;;;;411.70;391.83;;;9.70;99.90;;;;;;4889346;29;20289;-75
2023/10/27 09:37:50;;;;;;;428.10;407.47;;;9.70;99.90;;;;;;4888682;29;20049;-75
2023/10/27 09:40:16;;;;;;;391.70;373.10;;;9.80;99.90;;;;;;4899332;29;20434;-76
2023/10/27 09:42:43;;;;;;;378.60;360.70;;;9.80;99.90;;;;;;4898174;29;20384;-76
2023/10/27 09:45:16;;;;;;;435.37;414.20;;;9.80;99.90;;;;;;4879059;29;20036;-76
2023/10/27 09:47:45;;;;;;;444.67;424.17;;;9.90;99.90;;;;;;4893041;29;20782;-76
2023/10/27 09:50:17;;;;;;;437.43;416.93;;;9.90;99.90;;;;;;4893233;29;20319;-76
2023/10/27 09:52:46;;;;;;;449.40;427.97;;;10.00;99.90;;;;;;4892143;29;20308;-76
2023/10/27 09:55:13;;;;;;;393.30;374.57;;;10.00;99.90;;;;;;4885132;29;20372;-75
2023/10/27 09:57:42;;;;;;;414.47;394.60;;;10.00;99.90;;;;;;4884179;29;20296;-75
2023/10/27 10:00:09;;;;;;;385.73;368.10;;;10.00;99.90;;;;;;4890226;29;20316;-75
2023/10/27 10:02:37;;;;;;;387.03;368.83;;;10.00;99.90;;;;;;4897425;29;20312;-76
2023/10/27 10:05:03;;;;;;;434.70;413.90;;;10.00;99.90;;;;;;4901951;29;20648;-75
2023/10/27 10:07:44;;;;;;;432.00;411.07;;;10.00;99.90;;;;;;4886855;29;20383;-76
2023/10/27 10:10:29;;;;;;;431.20;410.33;;;10.10;99.90;;;;;;4866622;29;20045;-76
2023/10/27 10:13:14;;;;;;;427.08;406.23;;;10.10;99.90;;;;;;4882838;29;20936;-76
2023/10/27 10:15:44;;;;;;;431.47;410.50;;;10.10;99.90;;;;;;4876680;29;20084;-76
2023/10/27 10:18:25;;;;;;;422.37;401.97;;;10.20;99.90;;;;;;4898720;29;20332;-74
2023/10/27 10:20:58;;;;;;;431.37;410.17;;;10.30;99.90;;;;;;4893442;29;20433;-73
2023/10/27 10:23:47;;;;;;;416.40;396.50;;;10.30;99.90;;;;;;4890911;29;20285;-73
2023/10/27 10:26:13;;;;;;;378.33;360.13;;;10.30;99.90;;;;;;4881725;29;20356;-73
2023/10/27 10:28:41;;;;;;;402.50;383.20;;;10.40;99.90;;;;;;4913525;29;20377;-74
2023/10/27 10:31:06;;;;;;;400.77;381.17;;;10.40;99.90;;;;;;4882385;29;20163;-73
2023/10/27 10:33:34;;;;;;;393.33;374.50;;;10.40;99.90;;;;;;4896899;29;20455;-73
2023/10/27 10:36:14;;;;;;;382.23;363.90;;;10.40;99.90;;;;;;4885319;29;20060;-73
2023/10/27 10:38:49;;;;;;;419.60;399.87;;;10.40;99.90;;;;;;4900484;29;20309;-73
2023/10/27 10:41:16;;;;;;;391.17;373.10;;;10.40;99.90;;;;;;4918582;29;20368;-72
2023/10/27 10:43:42;;;;;;;414.37;394.23;;;10.40;99.90;;;;;;4900492;29;20297;-73
2023/10/27 10:46:12;;;;;;;416.73;396.63;;;10.40;99.90;;;;;;4887762;29;20307;-73
2023/10/27 10:48:46;;;;;;;476.93;453.47;;;10.40;99.90;;;;;;4891623;29;20112;-74
2023/10/27 10:51:36;;;;;;;398.47;378.87;;;10.50;99.90;;;;;;4888460;29;20278;-74
2023/10/27 10:54:08;;;;;;;396.30;377.47;;;10.40;99.90;;;;;;4883565;29;20367;-74
2023/10/27 10:56:34;;;;;;;466.40;443.43;;;10.40;99.90;;;;;;4884793;29;20281;-74
2023/10/27 10:59:03;;;;;;;404.73;385.13;;;10.40;99.90;;;;;;4902111;29;20853;-73
2023/10/27 11:01:29;;;;;;;455.37;433.10;;;10.40;99.90;;;;;;4899659;29;20044;-73
2023/10/27 11:03:56;;;;;;;432.77;411.80;;;10.40;99.90;;;;;;4901546;29;20289;-73
2023/10/27 11:06:25;;;;;;;429.33;408.57;;;10.40;99.90;;;;;;4880292;29;20788;-73
2023/10/27 11:08:51;;;;;;;420.07;400.03;;;10.40;99.90;;;;;;4886815;29;20296;-73
2023/10/27 11:11:17;;;;;;;435.10;414.17;;;10.40;99.90;;;;;;4899996;29;20395;-73
2023/10/27 11:13:46;;;;;;;443.07;421.53;;;10.30;99.90;;;;;;4884801;29;20074;-73
2023/10/27 11:16:22;;;;;;;434.30;413.47;;;10.30;99.90;;;;;;4887439;29;20800;-73
2023/10/27 11:18:59;;;;;;;433.93;413.33;;;10.30;99.90;;;;;;4874978;29;20809;-73
2023/10/27 11:21:27;;;;;;;423.03;402.47;;;10.20;99.90;;;;;;4898725;29;20713;-73
2023/10/27 11:23:53;;;;;;;377.13;359.20;;;10.20;99.90;;;;;;4902611;29;20293;-73
2023/10/27 11:26:21;;;;;;;396.13;377.13;;;10.20;99.90;;;;;;4902081;29;20686;-73
2023/10/27 11:28:47;;;;;;;448.53;426.50;;;10.20;99.90;;;;;;4892737;29;20651;-73
2023/10/27 11:31:22;;;;;;;438.70;417.53;;;10.20;99.90;;;;;;4882840;29;20296;-74
2023/10/27 11:34:18;;;;;;;404.80;385.40;;;10.20;99.90;;;;;;4887620;29;20307;-73
2023/10/27 11:37:01;;;;;;;414.90;394.63;;;10.20;99.90;;;;;;4889012;29;20050;-73
2023/10/27 11:39:27;;;;;;;371.13;353.10;;;10.20;99.90;;;;;;4900132;29;20403;-73
2023/10/27 11:42:00;;;;;;;383.63;365.40;;;10.10;99.90;;;;;;4887357;29;20288;-73
2023/10/27 11:44:30;;;;;;;396.87;377.87;;;10.10;99.90;;;;;;4886420;29;20799;-73
2023/10/27 11:46:58;;;;;;;486.17;461.97;;;10.10;99.90;;;;;;4898426;29;20299;-73
2023/10/27 11:49:25;;;;;;;474.40;451.20;;;10.10;99.90;;;;;;4877375;29;20293;-72
2023/10/27 11:51:53;;;;;;;533.17;505.37;;;10.10;99.90;;;;;;4882829;29;20289;-74
2023/10/27 11:54:20;;;;;;;488.03;463.57;;;10.00;99.90;;;;;;4895809;29;20368;-73
2023/10/27 11:56:47;;;;;;;518.03;491.23;;;10.00;99.90;;;;;;4889571;29;20285;-73
2023/10/27 11:59:13;;;;;;;414.33;393.77;;;10.00;99.90;;;;;;4884826;29;20716;-73
2023/10/27 12:01:40;;;;;;;431.23;410.30;;;10.00;99.90;;;;;;4896836;29;20289;-73
2023/10/27 12:04:10;;;;;;;426.47;405.93;;;10.00;99.90;;;;;;4889306;29;20302;-73
2023/10/27 12:06:40;;;;;;;385.00;366.57;;;10.00;99.90;;;;;;4882831;29;20301;-73
2023/10/27 12:09:07;;;;;;;439.67;418.67;;;10.00;99.90;;;;;;4882763;29;20360;-73
2023/10/27 12:11:33;;;;;;;404.70;385.00;;;10.00;99.90;;;;;;4888549;29;20628;-73
2023/10/27 12:13:59;;;;;;;416.47;396.23;;;10.00;99.90;;;;;;4897073;29;20343;-73
2023/10/27 12:16:27;;;;;;;437.27;415.80;;;10.00;99.90;;;;;;4897321;29;20292;-73
2023/10/27 12:18:55;;;;;;;455.67;433.83;;;10.00;99.90;;;;;;4878990;29;20531;-73